sensor_id;sensor_type;location;lat;lon;timestamp;P1;durP1;ratioP1;P2;durP2;ratioP2
41883;SDS011;27566;50.930;5.328;2023-08-24T00:00:37;14.20;;;8.85;;
41883;SDS011;27566;50.930;5.328;2023-08-24T00:03:03;15.07;;;9.13;;
41883;SDS011;27566;50.930;5.328;2023-08-24T00:05:29;12.90;;;7.90;;
41883;SDS011;27566;50.930;5.328;2023-08-24T00:07:57;17.40;;;10.15;;
41883;SDS011;27566;50.930;5.328;2023-08-24T00:10:23;17.23;;;7.55;;
41883;SDS011;27566;50.930;5.328;2023-08-24T00:12:49;14.20;;;10.48;;
41883;SDS011;27566;50.930;5.328;2023-08-24T00:15:15;11.88;;;7.97;;
41883;SDS011;27566;50.930;5.328;2023-08-24T00:17:41;15.32;;;8.93;;
41883;SDS011;27566;50.930;5.328;2023-08-24T00:20:07;13.52;;;9.43;;
41883;SDS011;27566;50.930;5.328;2023-08-24T00:22:36;12.98;;;9.32;;
41883;SDS011;27566;50.930;5.328;2023-08-24T00:25:08;10.80;;;7.88;;
41883;SDS011;27566;50.930;5.328;2023-08-24T00:27:35;12.88;;;8.60;;
41883;SDS011;27566;50.930;5.328;2023-08-24T00:30:05;12.60;;;9.18;;
41883;SDS011;27566;50.930;5.328;2023-08-24T00:32:32;14.48;;;9.10;;
41883;SDS011;27566;50.930;5.328;2023-08-24T00:35:00;12.25;;;7.95;;
41883;SDS011;27566;50.930;5.328;2023-08-24T00:37:27;10.63;;;7.50;;
41883;SDS011;27566;50.930;5.328;2023-08-24T00:39:53;13.38;;;7.63;;
41883;SDS011;27566;50.930;5.328;2023-08-24T00:42:20;15.95;;;8.25;;
41883;SDS011;27566;50.930;5.328;2023-08-24T00:44:48;13.75;;;7.63;;
41883;SDS011;27566;50.930;5.328;2023-08-24T00:47:14;12.02;;;8.05;;
41883;SDS011;27566;50.930;5.328;2023-08-24T00:49:42;14.02;;;8.95;;
41883;SDS011;27566;50.930;5.328;2023-08-24T00:52:08;14.90;;;8.98;;
41883;SDS011;27566;50.930;5.328;2023-08-24T00:54:34;12.95;;;8.85;;
41883;SDS011;27566;50.930;5.328;2023-08-24T00:57:02;15.80;;;9.20;;
41883;SDS011;27566;50.930;5.328;2023-08-24T00:59:27;23.90;;;14.65;;
41883;SDS011;27566;50.930;5.328;2023-08-24T01:01:53;23.80;;;11.70;;
41883;SDS011;27566;50.930;5.328;2023-08-24T01:04:20;13.50;;;8.10;;
41883;SDS011;27566;50.930;5.328;2023-08-24T01:06:47;15.82;;;9.60;;
41883;SDS011;27566;50.930;5.328;2023-08-24T01:09:13;18.63;;;9.85;;
41883;SDS011;27566;50.930;5.328;2023-08-24T01:17:00;15.38;;;9.70;;
41883;SDS011;27566;50.930;5.328;2023-08-24T01:19:38;12.27;;;9.40;;
41883;SDS011;27566;50.930;5.328;2023-08-24T01:22:20;16.30;;;9.43;;
41883;SDS011;27566;50.930;5.328;2023-08-24T01:27:23;15.40;;;10.75;;
41883;SDS011;27566;50.930;5.328;2023-08-24T01:29:50;13.88;;;9.45;;
41883;SDS011;27566;50.930;5.328;2023-08-24T01:32:17;14.60;;;9.23;;
41883;SDS011;27566;50.930;5.328;2023-08-24T01:34:43;13.75;;;9.15;;
41883;SDS011;27566;50.930;5.328;2023-08-24T01:37:09;15.02;;;10.75;;
41883;SDS011;27566;50.930;5.328;2023-08-24T01:39:40;15.73;;;9.63;;
41883;SDS011;27566;50.930;5.328;2023-08-24T01:42:13;18.73;;;9.70;;
41883;SDS011;27566;50.930;5.328;2023-08-24T01:44:44;14.02;;;8.90;;
41883;SDS011;27566;50.930;5.328;2023-08-24T01:47:15;14.73;;;10.10;;
41883;SDS011;27566;50.930;5.328;2023-08-24T01:49:43;15.63;;;10.13;;
41883;SDS011;27566;50.930;5.328;2023-08-24T01:52:09;22.40;;;8.80;;
41883;SDS011;27566;50.930;5.328;2023-08-24T01:54:36;11.18;;;8.38;;
41883;SDS011;27566;50.930;5.328;2023-08-24T01:57:04;13.10;;;8.35;;
41883;SDS011;27566;50.930;5.328;2023-08-24T01:59:31;16.75;;;8.48;;
41883;SDS011;27566;50.930;5.328;2023-08-24T02:01:57;14.02;;;8.95;;
41883;SDS011;27566;50.930;5.328;2023-08-24T02:04:23;12.43;;;8.10;;
41883;SDS011;27566;50.930;5.328;2023-08-24T02:06:49;14.63;;;8.45;;
41883;SDS011;27566;50.930;5.328;2023-08-24T02:09:15;14.40;;;7.82;;
41883;SDS011;27566;50.930;5.328;2023-08-24T02:11:41;13.00;;;8.15;;
41883;SDS011;27566;50.930;5.328;2023-08-24T02:14:07;12.32;;;8.02;;
41883;SDS011;27566;50.930;5.328;2023-08-24T02:16:33;15.07;;;9.25;;
41883;SDS011;27566;50.930;5.328;2023-08-24T02:19:00;12.52;;;7.47;;
41883;SDS011;27566;50.930;5.328;2023-08-24T02:21:26;15.25;;;8.32;;
41883;SDS011;27566;50.930;5.328;2023-08-24T02:23:52;11.82;;;7.53;;
41883;SDS011;27566;50.930;5.328;2023-08-24T02:26:18;10.55;;;7.18;;
41883;SDS011;27566;50.930;5.328;2023-08-24T02:28:46;10.10;;;7.35;;
41883;SDS011;27566;50.930;5.328;2023-08-24T02:31:12;11.25;;;7.45;;
41883;SDS011;27566;50.930;5.328;2023-08-24T02:33:38;12.25;;;7.07;;
41883;SDS011;27566;50.930;5.328;2023-08-24T02:36:04;15.30;;;7.32;;
41883;SDS011;27566;50.930;5.328;2023-08-24T02:38:30;14.65;;;6.28;;
41883;SDS011;27566;50.930;5.328;2023-08-24T02:41:03;8.23;;;6.53;;
41883;SDS011;27566;50.930;5.328;2023-08-24T02:43:30;10.90;;;6.38;;
41883;SDS011;27566;50.930;5.328;2023-08-24T02:46:03;13.40;;;6.40;;
41883;SDS011;27566;50.930;5.328;2023-08-24T02:48:30;11.05;;;6.75;;
41883;SDS011;27566;50.930;5.328;2023-08-24T02:50:57;9.60;;;6.70;;
41883;SDS011;27566;50.930;5.328;2023-08-24T02:53:23;13.75;;;7.18;;
41883;SDS011;27566;50.930;5.328;2023-08-24T02:55:50;13.30;;;7.10;;
41883;SDS011;27566;50.930;5.328;2023-08-24T02:58:16;9.70;;;7.15;;
41883;SDS011;27566;50.930;5.328;2023-08-24T03:00:42;12.60;;;6.78;;
41883;SDS011;27566;50.930;5.328;2023-08-24T03:03:08;11.05;;;7.82;;
41883;SDS011;27566;50.930;5.328;2023-08-24T03:05:34;15.07;;;7.93;;
41883;SDS011;27566;50.930;5.328;2023-08-24T03:08:01;12.15;;;7.00;;
41883;SDS011;27566;50.930;5.328;2023-08-24T03:10:29;12.73;;;7.43;;
41883;SDS011;27566;50.930;5.328;2023-08-24T03:12:56;13.18;;;9.00;;
41883;SDS011;27566;50.930;5.328;2023-08-24T03:15:22;14.38;;;8.52;;
41883;SDS011;27566;50.930;5.328;2023-08-24T03:17:48;17.42;;;9.25;;
41883;SDS011;27566;50.930;5.328;2023-08-24T03:20:14;12.80;;;8.63;;
41883;SDS011;27566;50.930;5.328;2023-08-24T03:22:40;13.02;;;9.55;;
41883;SDS011;27566;50.930;5.328;2023-08-24T03:25:06;14.20;;;9.32;;
41883;SDS011;27566;50.930;5.328;2023-08-24T03:27:32;16.17;;;9.40;;
41883;SDS011;27566;50.930;5.328;2023-08-24T03:29:58;14.98;;;8.88;;
41883;SDS011;27566;50.930;5.328;2023-08-24T03:32:24;14.65;;;10.52;;
41883;SDS011;27566;50.930;5.328;2023-08-24T03:34:50;13.80;;;8.77;;
41883;SDS011;27566;50.930;5.328;2023-08-24T03:37:16;18.15;;;9.68;;
41883;SDS011;27566;50.930;5.328;2023-08-24T03:39:42;15.75;;;12.55;;
41883;SDS011;27566;50.930;5.328;2023-08-24T03:42:08;19.38;;;13.05;;
41883;SDS011;27566;50.930;5.328;2023-08-24T03:44:34;26.98;;;18.40;;
41883;SDS011;27566;50.930;5.328;2023-08-24T03:47:00;26.98;;;18.55;;
41883;SDS011;27566;50.930;5.328;2023-08-24T03:49:26;22.30;;;13.20;;
41883;SDS011;27566;50.930;5.328;2023-08-24T03:51:55;21.95;;;14.55;;
41883;SDS011;27566;50.930;5.328;2023-08-24T03:54:20;23.17;;;15.48;;
41883;SDS011;27566;50.930;5.328;2023-08-24T03:56:47;16.27;;;10.30;;
41883;SDS011;27566;50.930;5.328;2023-08-24T03:59:13;25.77;;;15.55;;
41883;SDS011;27566;50.930;5.328;2023-08-24T04:01:39;17.00;;;9.43;;
41883;SDS011;27566;50.930;5.328;2023-08-24T04:04:05;19.23;;;12.52;;
41883;SDS011;27566;50.930;5.328;2023-08-24T04:06:31;25.08;;;16.35;;
41883;SDS011;27566;50.930;5.328;2023-08-24T04:08:57;18.13;;;12.02;;
41883;SDS011;27566;50.930;5.328;2023-08-24T04:11:23;21.95;;;14.35;;
41883;SDS011;27566;50.930;5.328;2023-08-24T04:13:48;15.15;;;9.32;;
41883;SDS011;27566;50.930;5.328;2023-08-24T04:16:14;18.02;;;8.70;;
41883;SDS011;27566;50.930;5.328;2023-08-24T04:18:40;12.00;;;9.30;;
41883;SDS011;27566;50.930;5.328;2023-08-24T04:21:06;17.08;;;9.93;;
41883;SDS011;27566;50.930;5.328;2023-08-24T04:23:32;16.77;;;9.80;;
41883;SDS011;27566;50.930;5.328;2023-08-24T04:25:58;14.27;;;8.50;;
41883;SDS011;27566;50.930;5.328;2023-08-24T04:28:24;16.73;;;8.95;;
41883;SDS011;27566;50.930;5.328;2023-08-24T04:30:53;10.88;;;8.85;;
41883;SDS011;27566;50.930;5.328;2023-08-24T04:33:23;13.18;;;8.05;;
41883;SDS011;27566;50.930;5.328;2023-08-24T04:35:49;12.70;;;8.07;;
41883;SDS011;27566;50.930;5.328;2023-08-24T04:38:16;13.07;;;8.85;;
41883;SDS011;27566;50.930;5.328;2023-08-24T04:40:49;15.18;;;8.40;;
41883;SDS011;27566;50.930;5.328;2023-08-24T04:43:17;14.52;;;8.85;;
41883;SDS011;27566;50.930;5.328;2023-08-24T04:45:51;14.23;;;8.95;;
41883;SDS011;27566;50.930;5.328;2023-08-24T04:48:22;13.50;;;8.43;;
41883;SDS011;27566;50.930;5.328;2023-08-24T04:50:49;14.32;;;8.80;;
41883;SDS011;27566;50.930;5.328;2023-08-24T04:53:19;16.45;;;8.63;;
41883;SDS011;27566;50.930;5.328;2023-08-24T04:55:45;13.52;;;8.70;;
41883;SDS011;27566;50.930;5.328;2023-08-24T04:58:15;13.23;;;9.23;;
41883;SDS011;27566;50.930;5.328;2023-08-24T05:00:41;15.13;;;9.95;;
41883;SDS011;27566;50.930;5.328;2023-08-24T05:03:07;14.55;;;8.98;;
41883;SDS011;27566;50.930;5.328;2023-08-24T05:05:34;15.20;;;9.25;;
41883;SDS011;27566;50.930;5.328;2023-08-24T05:08:01;16.83;;;9.50;;
41883;SDS011;27566;50.930;5.328;2023-08-24T05:10:32;13.75;;;9.43;;
41883;SDS011;27566;50.930;5.328;2023-08-24T05:12:58;17.92;;;9.98;;
41883;SDS011;27566;50.930;5.328;2023-08-24T05:15:25;14.88;;;9.23;;
41883;SDS011;27566;50.930;5.328;2023-08-24T05:17:51;14.07;;;8.80;;
41883;SDS011;27566;50.930;5.328;2023-08-24T05:20:20;15.18;;;10.30;;
41883;SDS011;27566;50.930;5.328;2023-08-24T05:22:46;17.73;;;10.00;;
41883;SDS011;27566;50.930;5.328;2023-08-24T05:25:13;13.90;;;9.77;;
41883;SDS011;27566;50.930;5.328;2023-08-24T05:27:41;16.02;;;9.55;;
41883;SDS011;27566;50.930;5.328;2023-08-24T05:30:07;21.10;;;10.40;;
41883;SDS011;27566;50.930;5.328;2023-08-24T05:32:34;14.95;;;9.20;;
41883;SDS011;27566;50.930;5.328;2023-08-24T05:35:04;16.17;;;9.82;;
41883;SDS011;27566;50.930;5.328;2023-08-24T05:37:31;14.73;;;10.00;;
41883;SDS011;27566;50.930;5.328;2023-08-24T05:39:57;14.13;;;9.25;;
41883;SDS011;27566;50.930;5.328;2023-08-24T05:42:23;14.65;;;8.55;;
41883;SDS011;27566;50.930;5.328;2023-08-24T05:44:49;16.95;;;8.88;;
41883;SDS011;27566;50.930;5.328;2023-08-24T05:47:15;17.00;;;9.95;;
41883;SDS011;27566;50.930;5.328;2023-08-24T05:49:41;11.65;;;8.43;;
41883;SDS011;27566;50.930;5.328;2023-08-24T05:52:07;12.73;;;7.97;;
41883;SDS011;27566;50.930;5.328;2023-08-24T05:54:33;18.05;;;9.55;;
41883;SDS011;27566;50.930;5.328;2023-08-24T05:57:01;14.57;;;9.15;;
41883;SDS011;27566;50.930;5.328;2023-08-24T05:59:27;18.48;;;9.55;;
41883;SDS011;27566;50.930;5.328;2023-08-24T06:01:54;12.25;;;8.90;;
41883;SDS011;27566;50.930;5.328;2023-08-24T06:04:20;13.57;;;8.13;;
41883;SDS011;27566;50.930;5.328;2023-08-24T06:06:46;14.98;;;7.75;;
41883;SDS011;27566;50.930;5.328;2023-08-24T06:09:11;14.13;;;8.45;;
41883;SDS011;27566;50.930;5.328;2023-08-24T06:11:37;14.50;;;8.52;;
41883;SDS011;27566;50.930;5.328;2023-08-24T06:14:03;13.68;;;8.02;;
41883;SDS011;27566;50.930;5.328;2023-08-24T06:16:29;17.88;;;9.43;;
41883;SDS011;27566;50.930;5.328;2023-08-24T06:18:55;14.48;;;7.93;;
41883;SDS011;27566;50.930;5.328;2023-08-24T06:21:21;15.18;;;8.38;;
41883;SDS011;27566;50.930;5.328;2023-08-24T06:23:47;12.07;;;8.02;;
41883;SDS011;27566;50.930;5.328;2023-08-24T06:26:13;17.48;;;9.10;;
41883;SDS011;27566;50.930;5.328;2023-08-24T06:28:39;13.93;;;7.70;;
41883;SDS011;27566;50.930;5.328;2023-08-24T06:31:06;13.45;;;7.50;;
41883;SDS011;27566;50.930;5.328;2023-08-24T06:33:34;12.80;;;6.95;;
41883;SDS011;27566;50.930;5.328;2023-08-24T06:36:01;13.45;;;8.30;;
41883;SDS011;27566;50.930;5.328;2023-08-24T06:38:30;16.00;;;8.98;;
41883;SDS011;27566;50.930;5.328;2023-08-24T06:40:59;16.23;;;9.27;;
41883;SDS011;27566;50.930;5.328;2023-08-24T06:43:26;13.45;;;8.73;;
41883;SDS011;27566;50.930;5.328;2023-08-24T06:45:54;14.45;;;8.15;;
41883;SDS011;27566;50.930;5.328;2023-08-24T06:48:20;14.93;;;8.07;;
41883;SDS011;27566;50.930;5.328;2023-08-24T06:50:46;15.20;;;9.40;;
41883;SDS011;27566;50.930;5.328;2023-08-24T06:53:12;12.98;;;6.95;;
41883;SDS011;27566;50.930;5.328;2023-08-24T06:55:39;12.75;;;7.30;;
41883;SDS011;27566;50.930;5.328;2023-08-24T06:58:05;14.52;;;8.00;;
41883;SDS011;27566;50.930;5.328;2023-08-24T07:00:32;12.15;;;7.82;;
41883;SDS011;27566;50.930;5.328;2023-08-24T07:02:58;15.32;;;8.10;;
41883;SDS011;27566;50.930;5.328;2023-08-24T07:05:24;13.20;;;7.70;;
41883;SDS011;27566;50.930;5.328;2023-08-24T07:07:51;12.88;;;7.47;;
41883;SDS011;27566;50.930;5.328;2023-08-24T07:10:19;12.40;;;6.32;;
41883;SDS011;27566;50.930;5.328;2023-08-24T07:12:46;9.40;;;5.97;;
41883;SDS011;27566;50.930;5.328;2023-08-24T07:15:12;13.10;;;6.25;;
41883;SDS011;27566;50.930;5.328;2023-08-24T07:17:38;10.23;;;6.38;;
41883;SDS011;27566;50.930;5.328;2023-08-24T07:20:04;12.02;;;5.47;;
41883;SDS011;27566;50.930;5.328;2023-08-24T07:22:31;9.73;;;5.68;;
41883;SDS011;27566;50.930;5.328;2023-08-24T07:24:58;14.05;;;6.88;;
41883;SDS011;27566;50.930;5.328;2023-08-24T07:27:23;11.05;;;6.05;;
41883;SDS011;27566;50.930;5.328;2023-08-24T07:29:49;9.40;;;5.72;;
41883;SDS011;27566;50.930;5.328;2023-08-24T07:32:15;11.20;;;6.75;;
41883;SDS011;27566;50.930;5.328;2023-08-24T07:34:41;13.40;;;5.32;;
41883;SDS011;27566;50.930;5.328;2023-08-24T07:37:07;11.02;;;5.13;;
41883;SDS011;27566;50.930;5.328;2023-08-24T07:39:33;9.35;;;5.18;;
41883;SDS011;27566;50.930;5.328;2023-08-24T07:41:59;10.05;;;5.43;;
41883;SDS011;27566;50.930;5.328;2023-08-24T07:44:25;11.85;;;4.70;;
41883;SDS011;27566;50.930;5.328;2023-08-24T07:46:51;10.30;;;5.22;;
41883;SDS011;27566;50.930;5.328;2023-08-24T07:49:17;8.68;;;4.55;;
41883;SDS011;27566;50.930;5.328;2023-08-24T07:51:43;12.38;;;4.95;;
41883;SDS011;27566;50.930;5.328;2023-08-24T07:54:09;14.80;;;5.68;;
41883;SDS011;27566;50.930;5.328;2023-08-24T07:56:35;8.07;;;4.35;;
41883;SDS011;27566;50.930;5.328;2023-08-24T07:59:02;10.05;;;5.18;;
41883;SDS011;27566;50.930;5.328;2023-08-24T08:01:27;6.50;;;4.00;;
41883;SDS011;27566;50.930;5.328;2023-08-24T08:03:53;12.73;;;4.70;;
41883;SDS011;27566;50.930;5.328;2023-08-24T08:06:19;10.60;;;4.40;;
41883;SDS011;27566;50.930;5.328;2023-08-24T08:08:47;11.63;;;5.28;;
41883;SDS011;27566;50.930;5.328;2023-08-24T08:11:15;8.98;;;4.63;;
41883;SDS011;27566;50.930;5.328;2023-08-24T08:13:41;7.97;;;4.50;;
41883;SDS011;27566;50.930;5.328;2023-08-24T08:16:07;8.48;;;4.10;;
41883;SDS011;27566;50.930;5.328;2023-08-24T08:18:33;8.07;;;3.42;;
41883;SDS011;27566;50.930;5.328;2023-08-24T08:21:01;7.53;;;3.40;;
41883;SDS011;27566;50.930;5.328;2023-08-24T08:23:33;9.40;;;3.75;;
41883;SDS011;27566;50.930;5.328;2023-08-24T08:25:59;6.47;;;3.92;;
41883;SDS011;27566;50.930;5.328;2023-08-24T08:28:25;10.05;;;4.35;;
41883;SDS011;27566;50.930;5.328;2023-08-24T08:30:51;10.00;;;3.42;;
41883;SDS011;27566;50.930;5.328;2023-08-24T08:33:17;7.35;;;3.50;;
41883;SDS011;27566;50.930;5.328;2023-08-24T08:35:44;6.25;;;3.88;;
41883;SDS011;27566;50.930;5.328;2023-08-24T08:38:10;6.90;;;3.88;;
41883;SDS011;27566;50.930;5.328;2023-08-24T08:40:36;6.85;;;3.50;;
41883;SDS011;27566;50.930;5.328;2023-08-24T08:43:03;8.68;;;4.47;;
41883;SDS011;27566;50.930;5.328;2023-08-24T08:45:29;10.48;;;5.10;;
41883;SDS011;27566;50.930;5.328;2023-08-24T08:47:58;11.50;;;4.78;;
41883;SDS011;27566;50.930;5.328;2023-08-24T08:50:26;7.30;;;4.15;;
41883;SDS011;27566;50.930;5.328;2023-08-24T08:52:52;8.07;;;4.22;;
41883;SDS011;27566;50.930;5.328;2023-08-24T08:55:18;12.60;;;4.15;;
41883;SDS011;27566;50.930;5.328;2023-08-24T08:57:47;6.68;;;3.15;;
41883;SDS011;27566;50.930;5.328;2023-08-24T09:00:14;8.05;;;3.97;;
41883;SDS011;27566;50.930;5.328;2023-08-24T09:02:45;8.85;;;4.07;;
41883;SDS011;27566;50.930;5.328;2023-08-24T09:05:14;6.95;;;3.67;;
41883;SDS011;27566;50.930;5.328;2023-08-24T09:07:40;8.02;;;3.70;;
41883;SDS011;27566;50.930;5.328;2023-08-24T09:10:07;7.40;;;3.95;;
41883;SDS011;27566;50.930;5.328;2023-08-24T09:12:34;7.55;;;3.78;;
41883;SDS011;27566;50.930;5.328;2023-08-24T09:15:03;7.20;;;3.67;;
41883;SDS011;27566;50.930;5.328;2023-08-24T09:17:33;10.57;;;4.38;;
41883;SDS011;27566;50.930;5.328;2023-08-24T09:20:00;6.80;;;4.07;;
41883;SDS011;27566;50.930;5.328;2023-08-24T09:22:35;9.57;;;3.88;;
41883;SDS011;27566;50.930;5.328;2023-08-24T09:25:02;7.68;;;3.83;;
41883;SDS011;27566;50.930;5.328;2023-08-24T09:27:29;8.82;;;3.65;;
41883;SDS011;27566;50.930;5.328;2023-08-24T09:29:56;7.60;;;3.80;;
41883;SDS011;27566;50.930;5.328;2023-08-24T09:32:27;8.15;;;4.10;;
41883;SDS011;27566;50.930;5.328;2023-08-24T09:34:53;10.15;;;4.30;;
41883;SDS011;27566;50.930;5.328;2023-08-24T09:37:19;8.07;;;3.38;;
41883;SDS011;27566;50.930;5.328;2023-08-24T09:39:45;6.93;;;3.08;;
41883;SDS011;27566;50.930;5.328;2023-08-24T09:42:12;9.55;;;3.95;;
41883;SDS011;27566;50.930;5.328;2023-08-24T09:44:40;6.88;;;3.95;;
41883;SDS011;27566;50.930;5.328;2023-08-24T09:47:10;6.13;;;3.22;;
41883;SDS011;27566;50.930;5.328;2023-08-24T09:49:37;5.38;;;3.65;;
41883;SDS011;27566;50.930;5.328;2023-08-24T09:52:06;9.43;;;3.05;;
41883;SDS011;27566;50.930;5.328;2023-08-24T09:54:35;7.50;;;3.53;;
41883;SDS011;27566;50.930;5.328;2023-08-24T09:57:03;6.13;;;4.13;;
41883;SDS011;27566;50.930;5.328;2023-08-24T09:59:32;8.50;;;3.67;;
41883;SDS011;27566;50.930;5.328;2023-08-24T10:02:00;8.88;;;4.30;;
41883;SDS011;27566;50.930;5.328;2023-08-24T10:04:32;6.55;;;3.13;;
41883;SDS011;27566;50.930;5.328;2023-08-24T10:09:35;10.82;;;4.03;;
41883;SDS011;27566;50.930;5.328;2023-08-24T10:12:06;11.57;;;4.57;;
41883;SDS011;27566;50.930;5.328;2023-08-24T10:14:36;8.40;;;4.75;;
41883;SDS011;27566;50.930;5.328;2023-08-24T10:17:37;8.45;;;5.25;;
41883;SDS011;27566;50.930;5.328;2023-08-24T10:20:04;11.18;;;5.18;;
41883;SDS011;27566;50.930;5.328;2023-08-24T10:22:34;11.57;;;4.70;;
41883;SDS011;27566;50.930;5.328;2023-08-24T10:25:01;9.20;;;4.22;;
41883;SDS011;27566;50.930;5.328;2023-08-24T10:27:28;8.48;;;5.25;;
41883;SDS011;27566;50.930;5.328;2023-08-24T10:29:54;7.38;;;4.45;;
41883;SDS011;27566;50.930;5.328;2023-08-24T10:32:19;7.38;;;4.40;;
41883;SDS011;27566;50.930;5.328;2023-08-24T10:34:47;10.57;;;4.53;;
41883;SDS011;27566;50.930;5.328;2023-08-24T10:37:13;10.68;;;6.40;;
41883;SDS011;27566;50.930;5.328;2023-08-24T10:39:45;8.18;;;5.10;;
41883;SDS011;27566;50.930;5.328;2023-08-24T10:42:12;7.13;;;4.30;;
41883;SDS011;27566;50.930;5.328;2023-08-24T10:44:39;12.25;;;5.70;;
41883;SDS011;27566;50.930;5.328;2023-08-24T10:47:12;9.07;;;5.15;;
41883;SDS011;27566;50.930;5.328;2023-08-24T10:49:42;8.88;;;4.82;;
41883;SDS011;27566;50.930;5.328;2023-08-24T10:52:18;8.77;;;4.50;;
41883;SDS011;27566;50.930;5.328;2023-08-24T10:54:46;11.98;;;5.57;;
41883;SDS011;27566;50.930;5.328;2023-08-24T10:59:58;12.80;;;5.13;;
41883;SDS011;27566;50.930;5.328;2023-08-24T11:02:30;11.82;;;5.85;;
41883;SDS011;27566;50.930;5.328;2023-08-24T11:07:49;7.68;;;4.93;;
41883;SDS011;27566;50.930;5.328;2023-08-24T11:10:16;13.75;;;7.28;;
41883;SDS011;27566;50.930;5.328;2023-08-24T11:18:21;13.73;;;6.68;;
41883;SDS011;27566;50.930;5.328;2023-08-24T11:23:27;12.98;;;6.78;;
41883;SDS011;27566;50.930;5.328;2023-08-24T11:25:54;11.05;;;6.72;;
41883;SDS011;27566;50.930;5.328;2023-08-24T11:28:23;15.82;;;6.57;;
41883;SDS011;27566;50.930;5.328;2023-08-24T11:30:50;12.05;;;6.68;;
41883;SDS011;27566;50.930;5.328;2023-08-24T11:33:26;11.52;;;6.55;;
41883;SDS011;27566;50.930;5.328;2023-08-24T11:35:54;12.65;;;7.47;;
41883;SDS011;27566;50.930;5.328;2023-08-24T11:38:20;14.02;;;7.82;;
41883;SDS011;27566;50.930;5.328;2023-08-24T11:40:46;10.07;;;6.70;;
41883;SDS011;27566;50.930;5.328;2023-08-24T11:43:12;11.73;;;6.53;;
41883;SDS011;27566;50.930;5.328;2023-08-24T11:45:53;16.05;;;8.23;;
41883;SDS011;27566;50.930;5.328;2023-08-24T11:48:23;11.35;;;6.85;;
41883;SDS011;27566;50.930;5.328;2023-08-24T11:50:51;14.87;;;7.30;;
41883;SDS011;27566;50.930;5.328;2023-08-24T11:53:22;10.98;;;7.72;;
41883;SDS011;27566;50.930;5.328;2023-08-24T11:55:53;9.18;;;5.97;;
41883;SDS011;27566;50.930;5.328;2023-08-24T11:58:19;11.38;;;6.82;;
41883;SDS011;27566;50.930;5.328;2023-08-24T12:00:45;12.13;;;6.18;;
41883;SDS011;27566;50.930;5.328;2023-08-24T12:03:12;12.88;;;7.47;;
41883;SDS011;27566;50.930;5.328;2023-08-24T12:05:41;8.75;;;6.00;;
41883;SDS011;27566;50.930;5.328;2023-08-24T12:08:07;12.75;;;6.60;;
41883;SDS011;27566;50.930;5.328;2023-08-24T12:10:46;11.35;;;5.50;;
41883;SDS011;27566;50.930;5.328;2023-08-24T12:13:12;11.68;;;5.85;;
41883;SDS011;27566;50.930;5.328;2023-08-24T12:15:38;8.80;;;5.53;;
41883;SDS011;27566;50.930;5.328;2023-08-24T12:18:12;10.48;;;5.30;;
41883;SDS011;27566;50.930;5.328;2023-08-24T12:20:41;9.98;;;5.40;;
41883;SDS011;27566;50.930;5.328;2023-08-24T12:23:07;5.88;;;4.03;;
41883;SDS011;27566;50.930;5.328;2023-08-24T12:25:39;8.65;;;4.72;;
41883;SDS011;27566;50.930;5.328;2023-08-24T12:28:16;10.98;;;3.78;;
41883;SDS011;27566;50.930;5.328;2023-08-24T12:30:43;9.00;;;3.83;;
41883;SDS011;27566;50.930;5.328;2023-08-24T12:33:26;8.73;;;4.97;;
41883;SDS011;27566;50.930;5.328;2023-08-24T12:35:53;10.32;;;4.63;;
41883;SDS011;27566;50.930;5.328;2023-08-24T12:38:21;9.07;;;4.70;;
41883;SDS011;27566;50.930;5.328;2023-08-24T12:40:48;7.78;;;4.75;;
41883;SDS011;27566;50.930;5.328;2023-08-24T12:43:14;10.43;;;4.45;;
41883;SDS011;27566;50.930;5.328;2023-08-24T12:45:40;8.75;;;3.55;;
41883;SDS011;27566;50.930;5.328;2023-08-24T12:48:06;6.88;;;4.05;;
41883;SDS011;27566;50.930;5.328;2023-08-24T12:50:38;11.15;;;5.10;;
41883;SDS011;27566;50.930;5.328;2023-08-24T12:53:04;10.43;;;4.13;;
41883;SDS011;27566;50.930;5.328;2023-08-24T12:55:34;8.55;;;4.70;;
41883;SDS011;27566;50.930;5.328;2023-08-24T12:58:02;10.02;;;4.40;;
41883;SDS011;27566;50.930;5.328;2023-08-24T13:00:28;9.18;;;4.97;;
41883;SDS011;27566;50.930;5.328;2023-08-24T13:02:55;9.23;;;4.82;;
41883;SDS011;27566;50.930;5.328;2023-08-24T13:05:21;7.43;;;4.15;;
41883;SDS011;27566;50.930;5.328;2023-08-24T13:07:47;9.20;;;5.10;;
41883;SDS011;27566;50.930;5.328;2023-08-24T13:10:13;10.35;;;4.93;;
41883;SDS011;27566;50.930;5.328;2023-08-24T13:12:39;7.68;;;4.15;;
41883;SDS011;27566;50.930;5.328;2023-08-24T13:15:05;8.23;;;4.78;;
41883;SDS011;27566;50.930;5.328;2023-08-24T13:17:32;7.47;;;4.03;;
41883;SDS011;27566;50.930;5.328;2023-08-24T13:19:58;9.27;;;4.13;;
41883;SDS011;27566;50.930;5.328;2023-08-24T13:22:24;11.93;;;4.78;;
41883;SDS011;27566;50.930;5.328;2023-08-24T13:24:50;8.30;;;3.97;;
41883;SDS011;27566;50.930;5.328;2023-08-24T13:27:15;11.43;;;4.22;;
41883;SDS011;27566;50.930;5.328;2023-08-24T13:29:42;9.18;;;4.47;;
41883;SDS011;27566;50.930;5.328;2023-08-24T13:32:07;7.20;;;3.33;;
41883;SDS011;27566;50.930;5.328;2023-08-24T13:34:34;8.75;;;3.75;;
41883;SDS011;27566;50.930;5.328;2023-08-24T13:37:01;6.97;;;4.07;;
41883;SDS011;27566;50.930;5.328;2023-08-24T13:39:30;6.10;;;3.58;;
41883;SDS011;27566;50.930;5.328;2023-08-24T13:41:59;9.15;;;3.60;;
41883;SDS011;27566;50.930;5.328;2023-08-24T13:44:26;6.10;;;3.40;;
41883;SDS011;27566;50.930;5.328;2023-08-24T13:46:52;8.15;;;3.55;;
41883;SDS011;27566;50.930;5.328;2023-08-24T13:49:18;8.27;;;3.80;;
41883;SDS011;27566;50.930;5.328;2023-08-24T13:51:44;12.27;;;4.25;;
41883;SDS011;27566;50.930;5.328;2023-08-24T13:54:17;8.70;;;4.05;;
41883;SDS011;27566;50.930;5.328;2023-08-24T13:56:45;5.47;;;2.92;;
41883;SDS011;27566;50.930;5.328;2023-08-24T13:59:12;6.97;;;3.20;;
41883;SDS011;27566;50.930;5.328;2023-08-24T14:01:39;6.07;;;2.97;;
41883;SDS011;27566;50.930;5.328;2023-08-24T14:04:05;4.72;;;3.00;;
41883;SDS011;27566;50.930;5.328;2023-08-24T14:06:32;4.13;;;2.63;;
41883;SDS011;27566;50.930;5.328;2023-08-24T14:09:05;5.70;;;2.53;;
41883;SDS011;27566;50.930;5.328;2023-08-24T14:11:31;5.22;;;2.40;;
41883;SDS011;27566;50.930;5.328;2023-08-24T14:13:58;5.43;;;2.22;;
41883;SDS011;27566;50.930;5.328;2023-08-24T14:16:24;7.38;;;2.75;;
41883;SDS011;27566;50.930;5.328;2023-08-24T14:18:51;5.53;;;2.40;;
41883;SDS011;27566;50.930;5.328;2023-08-24T14:21:18;5.13;;;2.58;;
41883;SDS011;27566;50.930;5.328;2023-08-24T14:23:48;5.43;;;2.50;;
41883;SDS011;27566;50.930;5.328;2023-08-24T14:26:15;7.60;;;2.80;;
41883;SDS011;27566;50.930;5.328;2023-08-24T14:28:47;7.75;;;2.67;;
41883;SDS011;27566;50.930;5.328;2023-08-24T14:31:18;6.13;;;2.63;;
41883;SDS011;27566;50.930;5.328;2023-08-24T14:33:45;6.65;;;2.35;;
41883;SDS011;27566;50.930;5.328;2023-08-24T14:36:11;3.92;;;1.67;;
41883;SDS011;27566;50.930;5.328;2023-08-24T14:38:40;5.30;;;2.10;;
41883;SDS011;27566;50.930;5.328;2023-08-24T14:41:09;5.55;;;2.00;;
41883;SDS011;27566;50.930;5.328;2023-08-24T14:43:36;5.72;;;2.22;;
41883;SDS011;27566;50.930;5.328;2023-08-24T14:46:02;5.15;;;2.17;;
41883;SDS011;27566;50.930;5.328;2023-08-24T14:48:29;3.95;;;1.98;;
41883;SDS011;27566;50.930;5.328;2023-08-24T14:50:55;5.65;;;2.20;;
41883;SDS011;27566;50.930;5.328;2023-08-24T14:53:22;4.35;;;2.45;;
41883;SDS011;27566;50.930;5.328;2023-08-24T14:55:49;9.32;;;2.40;;
41883;SDS011;27566;50.930;5.328;2023-08-24T14:58:15;5.40;;;1.80;;
41883;SDS011;27566;50.930;5.328;2023-08-24T15:00:41;5.50;;;1.90;;
41883;SDS011;27566;50.930;5.328;2023-08-24T15:03:10;2.55;;;1.73;;